Terminal Aerodrome Forecast
Issued by NWS

Home | Current Version | Previous Version | Graphics & Text | Print | Product List | Glossary On
Versions: 1 2 3 4 5 6 7 8 9 10 11 12 13 14 15 16
000
FTUS43 KMPX 242339
TAFRNH
TAF
KRNH 242339Z 2500/2524 31012G19KT P6SM OVC050
     FM250200 32007KT P6SM BKN040
     FM250600 31005KT P6SM SCT040
     FM251500 32012G19KT P6SM FEW040=

USA.gov is the U.S. government's official web portal to all federal, state and local government web resources and services.